Ana Sayfa
METAR-TAF:

METAR-TAF

Havaalanları :

Mexicali, Meksika

Enlem: 32-37-50N, Boylam: 115-14-30W, yükseklik: 22 m

Güncel hava durumu gözlemi

Rapor saat 19:48 UTC de 53 dakika önce yapıldı.
Rüzgar kuzey/kuzeybatıdan 2 kt
Sıcaklık 40°C
Nem 10%
Basınç 1009 hPa
Görüş mesafesi: 16.1 km
Açık gökyüzü

METAR: MMML 191948Z 33002KT 10SM SKC 40/03 A2981

Saat: 15:41 (20:41 UTC)

Tahmin

Rapor saat 16:29 UTC de 4 saat ve 12 dakika önce yapıldı.
Ayın 19'si saat 18 UTC'den ayın 20'si saat 18 UTC'ye kadar geçerli Tahmin
Rüzgar güney/güneybatıdan 12 kt
Görüş mesafesi: 10 km
Açık gökyüzü
Ayın 20'si saat 0300 UTC'den
Rüzgar kuzeydan kt
Görüş mesafesi: 10 km
Açık gökyüzü

TAF: MMML 191629Z 1918/2018 20012KT P6SM SKC FM200300 00000KT P6SM SKC

4.000'den fazla havaalanı için hava durumu gözlemleri ve tahminleri (METAR ve TAF raporları).

Kullanılabilir istasyonlar harita üzerinde sarı ve kırmızı noktalarla gösterilir.

İstasyonun adını görmek için fareyi noktanın üzerinde gezdirin.

Sonrasında hava gözlem ve tahminlerini görmek için tıklayın.

Haritayı değiştirmek için: yaklaştırmak için siyah artı işaretli yeşil düğmeye ve uzaklaştırmak için de eksi işaretli düğmeye hızla tıklayın; bitişik haritalar için yeşil okları kullanın.


METAR-TAF: